Strona główna
METAR-TAF:

METAR-TAF

Lotnisko :

Port lotniczy Kozani

Kozani, Grecja

Szerokość geograficzna: 40-18N, Długość geograficzna: 021-47E, wysokość: 634 m

Aktualna obserwacja pogody

Raport powstał 32 minut temu, godzina 03:20 UTC
Wiatr 5 kt od północ
Temperatura 11°C
Wilgotność 58%
Ciśnienie 1013 hPa

METAR: LGKZ 050320Z AUTO 36005KT //// // ////// 11/03 Q1013 RE//

czas: 06:52 (03:52 UTC)


TAF: brakujący

Obserwacja i prognoza pogody dla ponad 4000 lotnisk (raport METAR i TAF).

Dostępne stacje oznaczono żółtymi i czerwonymi punktami na mapie.

Najedź kursorem aby zobaczyć nazwę stacji.

Kliknij aby zobaczyć obserwacje i prognozy pogody.

Aby zmienić mapę: kliknij na zielony przycisk z czarnym krzyżykiem, aby powiększyć; na zielony przycisk z myślnikiem, aby pomniejszyć; na zielone strzałki, aby przejść do map sąsiednich.


METAR-TAF: